Time;durP1;ratioP1;P1;durP2;ratioP2;P2;SDS_P1;SDS_P2;PMS_P1;PMS_P2;Temp;Humidity;BMP_temperature;BMP_pressure;BME280_temperature;BME280_humidity;BME280_pressure;Samples;Min_cycle;Max_cycle;Signal;HPM_P1;HPM_P2
2022/08/08 00:00:21;;;;;;;2.40;1.10;;;;;;;12.86;74.07;97261.36;108488;1268;22686;-77
2022/08/08 00:03:17;;;;;;;1.90;0.90;;;;;;;12.99;74.13;97260.59;108503;1268;22538;-77
2022/08/08 00:05:55;;;;;;;2.60;1.10;;;;;;;13.04;73.96;97259.00;108417;1267;25378;-77
2022/08/08 00:08:33;;;;;;;3.40;1.40;;;;;;;13.08;73.62;97259.55;108444;1267;38501;-77
2022/08/08 00:11:17;;;;;;;4.00;1.10;;;;;;;13.07;73.13;97258.86;108418;1268;22524;-77
2022/08/08 00:14:04;;;;;;;3.40;1.20;;;;;;;13.05;73.60;97258.25;108513;1267;22565;-77
2022/08/08 00:16:43;;;;;;;3.40;1.50;;;;;;;12.97;74.30;97255.17;108493;1268;23283;-77
2022/08/08 00:19:19;;;;;;;4.90;1.40;;;;;;;12.97;74.56;97250.80;108456;1267;28765;-77
2022/08/08 00:21:56;;;;;;;2.50;0.90;;;;;;;12.97;74.49;97248.05;108440;1267;22549;-77
2022/08/08 00:24:33;;;;;;;2.50;1.50;;;;;;;12.91;74.47;97248.72;108410;1268;22556;-77
2022/08/08 00:27:08;;;;;;;2.00;1.10;;;;;;;12.74;74.84;97245.16;108516;1267;22559;-77
2022/08/08 00:29:44;;;;;;;2.20;1.10;;;;;;;12.66;75.03;97245.63;108384;1268;24281;-77
2022/08/08 00:32:21;;;;;;;6.20;1.20;;;;;;;12.64;75.19;97239.73;108486;1268;22551;-77
2022/08/08 00:35:22;;;;;;;3.20;1.00;;;;;;;12.66;75.26;97238.71;108547;1267;22684;-77
2022/08/08 00:38:04;;;;;;;4.00;1.00;;;;;;;12.76;75.60;97237.80;108347;1267;34006;-76
2022/08/08 00:41:10;;;;;;;1.10;0.70;;;;;;;12.75;75.55;97238.50;108494;1266;24254;-76
2022/08/08 00:44:03;;;;;;;2.60;1.30;;;;;;;12.75;75.62;97234.50;108474;1267;22808;-77
2022/08/08 00:47:02;;;;;;;3.30;1.10;;;;;;;12.87;75.97;97229.48;108503;1267;24217;-77
2022/08/08 00:50:14;;;;;;;3.00;1.10;;;;;;;12.99;76.13;97231.30;108326;1268;30357;-77
2022/08/08 00:53:06;;;;;;;1.40;1.10;;;;;;;13.11;76.27;97234.41;108497;1268;22551;-77
2022/08/08 00:56:12;;;;;;;3.50;1.30;;;;;;;13.20;76.18;97231.27;108558;1267;22568;-77
2022/08/08 00:59:45;;;;;;;2.00;1.00;;;;;;;13.26;75.83;97232.19;108328;1267;40971;-77
2022/08/08 01:02:41;;;;;;;2.30;1.10;;;;;;;13.36;75.81;97230.96;108325;1267;24237;-77
2022/08/08 01:05:38;;;;;;;2.50;1.10;;;;;;;13.38;75.82;97227.88;108416;1267;22523;-77
2022/08/08 01:08:44;;;;;;;2.80;1.30;;;;;;;13.20;76.07;97229.08;108381;1267;37324;-77
2022/08/08 01:11:58;;;;;;;1.40;1.20;;;;;;;13.08;76.27;97225.70;108366;1268;25860;-77
2022/08/08 01:14:58;;;;;;;5.20;1.40;;;;;;;13.04;75.97;97226.80;108453;1267;22754;-77
2022/08/08 01:18:02;;;;;;;1.90;1.20;;;;;;;13.05;75.49;97229.76;108471;1267;23445;-77
2022/08/08 01:20:53;;;;;;;2.60;1.30;;;;;;;13.17;75.23;97226.80;108405;1267;25250;-77
2022/08/08 01:24:03;;;;;;;2.50;1.20;;;;;;;13.28;76.30;97226.95;108518;1267;22568;-77
2022/08/08 01:27:25;;;;;;;3.20;1.20;;;;;;;13.27;76.57;97230.36;108502;1267;25364;-77
2022/08/08 01:30:44;;;;;;;1.50;1.10;;;;;;;13.24;76.37;97237.30;108247;1268;32317;-77
2022/08/08 01:33:59;;;;;;;4.70;1.20;;;;;;;13.01;76.63;97241.03;108306;1267;25373;-77
2022/08/08 01:37:12;;;;;;;2.70;1.00;;;;;;;12.94;77.18;97241.45;108231;1268;22481;-77
2022/08/08 01:40:04;;;;;;;2.50;0.90;;;;;;;13.03;77.48;97236.33;108447;1267;34417;-76
2022/08/08 01:42:43;;;;;;;2.20;1.10;;;;;;;13.13;77.85;97232.54;108429;1266;23883;-77
2022/08/08 01:45:41;;;;;;;2.40;1.20;;;;;;;13.16;77.69;97233.14;108487;1268;22571;-76
2022/08/08 01:48:22;;;;;;;4.30;1.40;;;;;;;13.24;77.75;97230.44;108325;1267;42161;-77
2022/08/08 01:51:30;;;;;;;3.30;1.30;;;;;;;13.32;77.70;97228.29;108511;1267;22464;-77
2022/08/08 01:54:11;;;;;;;2.70;1.30;;;;;;;13.38;77.54;97222.75;108508;1267;24248;-77
2022/08/08 01:56:55;;;;;;;2.00;1.30;;;;;;;13.35;77.90;97220.86;108518;1267;22654;-77
2022/08/08 01:59:55;;;;;;;3.80;1.00;;;;;;;13.31;77.98;97218.81;108379;1267;24826;-77
2022/08/08 02:02:56;;;;;;;2.60;1.30;;;;;;;13.29;78.27;97213.95;108494;1267;24281;-77
2022/08/08 02:05:44;;;;;;;2.40;1.10;;;;;;;13.14;78.49;97214.16;108419;1267;22538;-77
2022/08/08 02:08:22;;;;;;;2.20;1.10;;;;;;;13.02;78.77;97214.56;108412;1267;42692;-77
2022/08/08 02:11:05;;;;;;;3.50;1.20;;;;;;;12.96;78.69;97210.79;108495;1267;22668;-77
2022/08/08 02:13:51;;;;;;;4.30;1.20;;;;;;;13.00;78.74;97208.30;108480;1268;22543;-77
2022/08/08 02:16:34;;;;;;;3.20;1.20;;;;;;;13.09;78.77;97208.27;108502;1267;23889;-77
2022/08/08 02:19:15;;;;;;;3.00;1.40;;;;;;;13.14;79.08;97212.02;108430;1267;39655;-77
2022/08/08 02:24:51;;;;;;;6.50;1.40;;;;;;;13.23;78.42;97205.15;108482;1267;22531;-77
2022/08/08 02:27:29;;;;;;;2.80;1.30;;;;;;;13.29;78.61;97207.06;108537;1267;24204;-77
2022/08/08 02:30:08;;;;;;;2.60;1.10;;;;;;;13.22;78.45;97211.81;108470;1268;28123;-77
2022/08/08 02:33:10;;;;;;;4.30;1.50;;;;;;;13.12;78.46;97214.54;108440;1267;22574;-77
2022/08/08 02:36:03;;;;;;;2.30;1.20;;;;;;;12.99;78.48;97216.45;108413;1267;22602;-77
2022/08/08 02:38:53;;;;;;;3.30;1.60;;;;;;;12.99;78.63;97220.66;108408;1267;25754;-77
2022/08/08 02:42:19;;;;;;;5.00;1.30;;;;;;;13.04;78.48;97220.88;108395;1267;22525;-77
2022/08/08 02:45:20;;;;;;;3.80;1.20;;;;;;;13.14;78.73;97220.06;108474;1267;22542;-77
2022/08/08 02:48:24;;;;;;;4.10;1.50;;;;;;;13.20;78.42;97221.84;108335;1267;24592;-77
2022/08/08 02:51:27;;;;;;;3.60;1.10;;;;;;;13.18;77.90;97225.67;108413;1267;23864;-77
2022/08/08 02:54:26;;;;;;;2.90;1.30;;;;;;;13.16;77.68;97219.77;108441;1267;23778;-77
2022/08/08 02:57:46;;;;;;;3.30;1.20;;;;;;;13.19;77.72;97215.99;108427;1267;22542;-77
2022/08/08 03:00:57;;;;;;;3.10;1.40;;;;;;;13.20;77.60;97220.82;108433;1267;25363;-77
2022/08/08 03:04:24;;;;;;;1.90;1.00;;;;;;;13.19;77.65;97223.93;108381;1267;22695;-77
2022/08/08 03:07:53;;;;;;;3.30;1.60;;;;;;;12.99;77.52;97222.41;108418;1267;22546;-77
2022/08/08 03:10:50;;;;;;;3.50;1.50;;;;;;;12.77;77.59;97228.38;108526;1267;22550;-77
2022/08/08 03:13:50;;;;;;;3.00;1.40;;;;;;;12.70;77.68;97229.92;108405;1268;22523;-77
2022/08/08 03:16:32;;;;;;;3.10;1.40;;;;;;;12.70;77.59;97227.91;108398;1268;24028;-77
2022/08/08 03:19:25;;;;;;;1.50;1.30;;;;;;;12.76;77.90;97233.16;108418;1266;36294;-77
2022/08/08 03:21:53;;;;;;;2.30;1.30;;;;;;;12.83;78.34;97238.67;108428;1268;22714;-77
2022/08/08 03:24:24;;;;;;;2.30;1.40;;;;;;;12.90;78.37;97240.84;108527;1267;22533;-77
2022/08/08 03:27:03;;;;;;;3.40;1.50;;;;;;;12.90;78.32;97245.21;108499;1266;23328;-77
2022/08/08 03:29:41;;;;;;;2.40;1.20;;;;;;;12.76;78.17;97240.94;108441;1267;27038;-77
2022/08/08 03:35:01;;;;;;;2.70;1.50;;;;;;;12.72;77.99;97229.27;108505;1268;23903;-77
2022/08/08 03:37:34;;;;;;;3.40;1.20;;;;;;;12.83;78.52;97229.41;108495;1268;22565;-77
2022/08/08 03:40:09;;;;;;;2.80;1.50;;;;;;;12.89;78.86;97235.15;108424;1268;34868;-77
2022/08/08 03:42:41;;;;;;;2.80;1.50;;;;;;;12.90;78.97;97236.42;108490;1267;23854;-77
2022/08/08 03:45:19;;;;;;;3.30;1.40;;;;;;;12.98;79.37;97245.32;108502;1268;22551;-77
2022/08/08 03:48:01;;;;;;;3.10;1.50;;;;;;;12.97;79.66;97246.33;108385;1268;32072;-77
2022/08/08 03:50:34;;;;;;;3.90;1.60;;;;;;;12.95;79.88;97247.10;108486;1267;23890;-77
2022/08/08 03:53:12;;;;;;;2.90;1.50;;;;;;;13.03;80.06;97248.40;108494;1267;23567;-77
2022/08/08 03:55:47;;;;;;;4.10;1.40;;;;;;;13.10;80.04;97255.61;108508;1267;24220;-77
2022/08/08 03:58:22;;;;;;;4.20;1.60;;;;;;;13.00;80.11;97256.42;108411;1268;27206;-77
2022/08/08 04:00:56;;;;;;;2.30;1.50;;;;;;;12.92;80.19;97257.96;108466;1267;25018;-77
2022/08/08 04:03:36;;;;;;;4.80;1.60;;;;;;;12.94;80.44;97261.45;108469;1268;24260;-77
2022/08/08 04:06:09;;;;;;;2.90;1.40;;;;;;;13.02;80.77;97261.57;107506;1267;1344478;-77
2022/08/08 04:08:40;;;;;;;5.00;1.90;;;;;;;13.12;80.92;97260.27;108399;1268;57080;-77
2022/08/08 04:11:12;;;;;;;4.10;1.50;;;;;;;13.21;80.91;97260.86;108500;1268;22640;-77
2022/08/08 04:13:44;;;;;;;1.70;1.30;;;;;;;13.26;81.05;97263.35;108511;1268;22558;-77
2022/08/08 04:16:18;;;;;;;2.80;1.60;;;;;;;13.36;81.21;97268.20;108377;1268;22597;-77
2022/08/08 04:18:50;;;;;;;1.90;1.50;;;;;;;13.45;81.12;97271.80;108412;1268;29196;-76
2022/08/08 04:21:21;;;;;;;2.10;1.40;;;;;;;13.49;81.10;97281.30;108441;1268;22617;-77
2022/08/08 04:23:52;;;;;;;4.90;1.50;;;;;;;13.63;81.15;97287.04;108502;1268;22537;-77
2022/08/08 04:26:23;;;;;;;3.30;1.90;;;;;;;13.73;80.88;97292.07;108491;1267;22562;-77
2022/08/08 04:28:54;;;;;;;2.50;2.10;;;;;;;13.76;80.61;97288.82;108372;1267;27183;-77
2022/08/08 04:31:26;;;;;;;3.20;2.00;;;;;;;13.82;80.20;97284.20;108520;1267;22686;-76
2022/08/08 04:33:57;;;;;;;3.40;1.80;;;;;;;13.82;80.09;97289.85;108522;1268;24176;-77
2022/08/08 04:36:28;;;;;;;2.80;1.90;;;;;;;13.88;80.38;97289.41;108486;1268;22541;-77
2022/08/08 04:38:59;;;;;;;2.70;1.70;;;;;;;13.98;80.46;97287.86;108415;1267;30724;-77
2022/08/08 04:41:30;;;;;;;1.70;1.50;;;;;;;14.07;80.22;97283.23;108498;1266;22565;-76
2022/08/08 04:44:01;;;;;;;2.50;1.60;;;;;;;14.15;79.94;97283.98;108466;1267;23175;-76
2022/08/08 04:46:32;;;;;;;3.90;1.60;;;;;;;14.21;79.39;97289.20;108530;1267;22516;-77
2022/08/08 04:49:03;;;;;;;3.80;2.00;;;;;;;14.20;78.62;97290.81;108435;1267;28795;-76
2022/08/08 04:51:34;;;;;;;2.40;1.90;;;;;;;14.02;78.13;97286.91;108438;1268;22538;-77
2022/08/08 04:54:06;;;;;;;4.00;2.10;;;;;;;13.80;78.34;97294.66;108452;1267;22698;-76
2022/08/08 04:56:37;;;;;;;3.90;2.10;;;;;;;13.63;78.83;97295.19;108509;1265;22715;-76
2022/08/08 04:59:08;;;;;;;3.90;2.00;;;;;;;13.52;79.22;97292.79;108416;1267;27132;-76
2022/08/08 05:01:39;;;;;;;2.30;1.80;;;;;;;13.55;79.90;97289.25;108534;1266;25264;-76
2022/08/08 05:04:11;;;;;;;5.40;2.40;;;;;;;13.68;80.04;97290.46;108502;1268;22521;-76
2022/08/08 05:06:42;;;;;;;3.30;1.80;;;;;;;13.76;79.82;97288.18;108534;1268;22529;-76
2022/08/08 05:09:13;;;;;;;2.30;1.70;;;;;;;13.79;79.79;97285.55;108457;1267;27661;-76
2022/08/08 05:11:44;;;;;;;3.70;1.90;;;;;;;13.83;79.87;97274.76;108436;1268;24226;-76
2022/08/08 05:14:16;;;;;;;3.00;2.10;;;;;;;13.80;79.78;97276.96;108543;1267;23809;-76
2022/08/08 05:16:47;;;;;;;3.00;2.10;;;;;;;13.70;79.66;97276.27;108525;1268;23366;-76
2022/08/08 05:19:18;;;;;;;7.00;2.50;;;;;;;13.57;80.19;97284.43;108455;1268;33176;-76
2022/08/08 05:21:52;;;;;;;4.70;2.50;;;;;;;13.46;80.34;97285.86;108544;1268;22545;-76
2022/08/08 05:24:23;;;;;;;4.60;2.20;;;;;;;13.34;80.62;97285.80;108451;1267;24931;-76
2022/08/08 05:26:56;;;;;;;2.90;2.30;;;;;;;13.20;80.52;97285.36;108468;1268;22513;-76
2022/08/08 05:29:28;;;;;;;3.00;2.10;;;;;;;13.07;80.88;97276.44;108385;1267;27434;-76
2022/08/08 05:31:59;;;;;;;2.90;2.00;;;;;;;13.07;81.22;97275.31;108516;1268;22723;-76
2022/08/08 05:34:38;;;;;;;4.90;2.30;;;;;;;13.18;81.43;97279.14;108508;1268;22546;-76
2022/08/08 05:37:12;;;;;;;6.20;2.10;;;;;;;13.30;81.42;97282.37;108530;1268;22880;-76
2022/08/08 05:39:46;;;;;;;6.50;2.60;;;;;;;13.43;81.44;97284.60;108451;1267;26115;-76
2022/08/08 05:42:17;;;;;;;6.80;2.40;;;;;;;13.54;81.04;97295.59;108474;1267;25360;-76
2022/08/08 05:44:49;;;;;;;4.30;2.20;;;;;;;13.62;80.87;97303.29;108458;1267;22662;-76
2022/08/08 05:47:22;;;;;;;4.90;2.30;;;;;;;13.75;80.72;97306.84;108539;1267;22649;-76
2022/08/08 05:49:54;;;;;;;4.70;2.10;;;;;;;13.78;80.30;97310.77;108428;1265;38085;-76
2022/08/08 05:52:25;;;;;;;3.90;2.20;;;;;;;13.86;80.52;97318.90;108515;1267;25244;-76
2022/08/08 05:54:57;;;;;;;5.00;2.20;;;;;;;13.92;80.41;97323.27;108479;1268;24214;-76
2022/08/08 05:57:29;;;;;;;6.70;2.70;;;;;;;14.02;80.19;97324.50;108458;1268;22475;-76
2022/08/08 06:00:03;;;;;;;4.50;2.20;;;;;;;14.11;79.63;97330.13;108495;1268;26390;-76
2022/08/08 06:05:25;;;;;;;4.40;2.50;;;;;;;14.33;79.23;97337.39;108397;1267;22537;-76
2022/08/08 06:07:57;;;;;;;3.50;2.10;;;;;;;14.32;79.08;97333.58;108363;1267;39098;-76
2022/08/08 06:10:33;;;;;;;5.20;2.90;;;;;;;14.28;78.92;97334.04;108532;1267;22632;-76
2022/08/08 06:13:05;;;;;;;4.30;2.30;;;;;;;14.25;78.97;97326.12;108512;1268;24383;-76
2022/08/08 06:15:37;;;;;;;4.70;2.40;;;;;;;14.27;79.18;97324.23;108506;1267;22532;-76
2022/08/08 06:18:10;;;;;;;4.40;2.40;;;;;;;14.36;78.70;97323.34;108481;1267;32165;-76
2022/08/08 06:20:42;;;;;;;6.50;2.70;;;;;;;14.55;78.13;97330.06;108553;1268;25401;-76
2022/08/08 06:23:13;;;;;;;5.00;2.40;;;;;;;15.11;78.85;97330.66;108525;1267;22461;-76
2022/08/08 06:25:47;;;;;;;4.10;2.00;;;;;;;15.52;78.03;97335.60;108455;1268;22520;-76
2022/08/08 06:28:24;;;;;;;3.40;2.40;;;;;;;15.82;77.12;97336.15;108446;1268;45986;-76
2022/08/08 06:30:58;;;;;;;2.10;1.80;;;;;;;16.07;76.81;97335.50;108423;1267;22649;-76
2022/08/08 06:33:53;;;;;;;4.80;2.30;;;;;;;16.43;76.07;97335.87;108505;1267;22549;-76
2022/08/08 06:36:32;;;;;;;6.10;2.20;;;;;;;18.03;77.39;97340.89;108459;1267;22556;-76
2022/08/08 06:39:04;;;;;;;4.60;2.00;;;;;;;19.87;73.82;97343.15;108490;1267;33026;-76
2022/08/08 06:41:40;;;;;;;4.30;2.10;;;;;;;20.36;70.13;97347.66;108544;1267;22549;-76
2022/08/08 06:44:16;;;;;;;3.10;1.90;;;;;;;19.92;67.98;97346.70;108437;1267;22612;-76
2022/08/08 06:46:48;;;;;;;3.20;1.80;;;;;;;19.53;68.09;97347.05;108533;1267;24507;-76
2022/08/08 06:49:20;;;;;;;3.10;1.80;;;;;;;19.26;68.08;97349.67;108454;1267;32553;-76
2022/08/08 06:51:52;;;;;;;2.80;2.00;;;;;;;18.94;67.99;97347.17;108521;1267;22551;-76
2022/08/08 06:54:25;;;;;;;4.30;1.90;;;;;;;18.63;67.46;97339.04;108548;1267;23075;-76
2022/08/08 06:56:58;;;;;;;3.20;2.20;;;;;;;17.88;66.93;97340.21;108488;1267;22549;-76
2022/08/08 06:59:29;;;;;;;3.10;2.50;;;;;;;17.29;67.62;97336.95;108445;1267;41232;-76
2022/08/08 07:02:03;;;;;;;6.80;3.30;;;;;;;16.84;68.48;97339.67;108474;1267;22554;-76
2022/08/08 07:04:45;;;;;;;6.90;3.40;;;;;;;16.50;69.15;97334.66;108550;1267;23769;-76
2022/08/08 07:07:23;;;;;;;7.40;3.20;;;;;;;16.22;70.09;97334.41;108544;1267;23882;-76
2022/08/08 07:10:02;;;;;;;7.50;3.20;;;;;;;16.10;70.71;97335.83;108515;1268;24644;-76
2022/08/08 07:12:41;;;;;;;6.30;3.40;;;;;;;15.93;71.15;97333.38;108554;1268;25219;-76
2022/08/08 07:15:15;;;;;;;4.40;2.70;;;;;;;15.66;71.67;97329.81;108486;1267;23208;-76
2022/08/08 07:17:49;;;;;;;5.00;2.80;;;;;;;15.48;72.75;97321.51;108493;1267;24423;-76
2022/08/08 07:20:24;;;;;;;4.80;2.20;;;;;;;15.34;73.39;97322.09;108481;1267;24456;-76
2022/08/08 07:23:04;;;;;;;3.50;2.20;;;;;;;15.27;74.02;97326.95;108517;1267;22560;-76
2022/08/08 07:25:41;;;;;;;3.10;2.00;;;;;;;15.27;74.59;97335.48;108508;1268;22622;-76
2022/08/08 07:28:18;;;;;;;4.00;2.30;;;;;;;15.37;74.98;97336.56;108469;1265;35507;-76
2022/08/08 07:30:54;;;;;;;5.50;2.20;;;;;;;15.48;74.96;97345.27;108553;1268;22635;-76
2022/08/08 07:33:29;;;;;;;5.30;2.10;;;;;;;15.54;74.90;97348.45;108548;1268;23953;-76
2022/08/08 07:36:00;;;;;;;4.50;2.90;;;;;;;15.61;75.08;97348.63;108428;1267;22539;-77
2022/08/08 07:38:33;;;;;;;3.70;2.40;;;;;;;15.67;75.01;97351.38;108388;1268;29795;-76
2022/08/08 07:41:07;;;;;;;5.70;2.20;;;;;;;15.72;75.05;97355.23;108556;1268;25026;-76
2022/08/08 07:43:39;;;;;;;4.10;2.30;;;;;;;15.79;74.73;97358.88;108554;1267;23893;-76
2022/08/08 07:46:14;;;;;;;5.50;2.30;;;;;;;15.87;74.67;97357.55;108494;1267;22578;-76
2022/08/08 07:48:46;;;;;;;5.40;2.20;;;;;;;15.94;74.44;97362.36;108449;1267;38198;-76
2022/08/08 07:51:20;;;;;;;4.80;2.40;;;;;;;15.98;73.98;97364.69;108535;1266;22522;-76
2022/08/08 07:54:05;;;;;;;4.70;2.10;;;;;;;15.92;73.25;97362.61;108472;1268;22565;-76
2022/08/08 07:56:44;;;;;;;3.90;1.90;;;;;;;15.95;73.79;97363.27;108507;1267;22573;-76
2022/08/08 07:59:19;;;;;;;5.00;2.60;;;;;;;15.97;73.31;97364.11;108460;1266;26429;-76
2022/08/08 08:01:58;;;;;;;6.80;3.10;;;;;;;15.94;73.30;97366.48;108530;1267;24183;-76
2022/08/08 08:04:33;;;;;;;5.60;3.30;;;;;;;15.87;73.14;97369.69;108428;1268;23281;-76
2022/08/08 08:07:07;;;;;;;5.20;3.60;;;;;;;15.81;73.13;97374.61;108538;1268;22531;-76
2022/08/08 08:09:41;;;;;;;6.30;2.50;;;;;;;15.74;72.75;97371.51;108408;1268;34707;-76
2022/08/08 08:12:16;;;;;;;3.40;2.30;;;;;;;15.75;72.75;97371.55;108507;1268;22706;-76
2022/08/08 08:15:02;;;;;;;3.90;1.80;;;;;;;15.80;73.09;97377.67;108559;1268;22655;-76
2022/08/08 08:17:39;;;;;;;5.60;2.30;;;;;;;15.94;72.95;97379.95;108462;1268;22876;-76
2022/08/08 08:20:14;;;;;;;5.10;2.20;;;;;;;15.93;72.51;97377.23;108540;1268;22868;-76
2022/08/08 08:22:46;;;;;;;4.40;2.50;;;;;;;15.96;72.81;97377.84;108560;1267;22544;-76
2022/08/08 08:25:17;;;;;;;4.70;2.20;;;;;;;16.12;73.55;97383.76;108532;1268;22553;-76
2022/08/08 08:27:48;;;;;;;5.20;2.20;;;;;;;16.42;73.66;97389.16;108460;1268;24044;-76
2022/08/08 08:30:20;;;;;;;4.20;2.40;;;;;;;16.69;73.55;97391.11;108467;1268;22631;-76
2022/08/08 08:32:52;;;;;;;5.30;2.50;;;;;;;16.74;72.32;97390.54;108461;1268;22651;-76
2022/08/08 08:35:23;;;;;;;5.90;2.50;;;;;;;16.77;72.50;97390.88;108370;1268;22467;-76
2022/08/08 08:37:58;;;;;;;5.00;2.70;;;;;;;16.81;72.28;97389.86;108327;1268;36351;-77
2022/08/08 08:40:31;;;;;;;5.40;3.00;;;;;;;16.84;71.85;97385.45;108523;1268;22561;-77
2022/08/08 08:43:03;;;;;;;5.20;3.00;;;;;;;16.80;71.99;97386.14;108432;1268;22476;-77
2022/08/08 08:45:36;;;;;;;6.60;4.20;;;;;;;16.80;71.64;97393.32;108499;1268;25369;-77
2022/08/08 08:48:09;;;;;;;5.30;4.20;;;;;;;16.90;72.38;97395.00;108358;1268;23944;-77
2022/08/08 08:50:41;;;;;;;6.10;4.90;;;;;;;17.02;72.23;97396.45;108488;1268;23084;-77
2022/08/08 08:53:13;;;;;;;7.30;4.90;;;;;;;17.23;72.31;97395.36;108512;1268;22562;-77
2022/08/08 08:55:46;;;;;;;6.70;4.20;;;;;;;17.51;72.64;97389.20;108497;1268;23303;-76
2022/08/08 08:58:25;;;;;;;6.80;3.80;;;;;;;17.82;71.93;97387.87;108406;1268;46332;-76
2022/08/08 09:00:58;;;;;;;7.90;4.30;;;;;;;18.09;71.71;97388.32;108425;1268;25232;-76
2022/08/08 09:03:33;;;;;;;5.80;3.60;;;;;;;18.34;71.66;97391.79;108470;1267;22549;-76
2022/08/08 09:06:05;;;;;;;5.70;2.90;;;;;;;18.51;70.49;97390.00;108466;1268;22532;-77
2022/08/08 09:08:39;;;;;;;5.50;3.00;;;;;;;18.82;69.81;97389.23;108432;1268;32579;-76
2022/08/08 09:11:12;;;;;;;4.60;2.30;;;;;;;18.80;67.79;97390.45;108476;1268;22543;-77
2022/08/08 09:13:47;;;;;;;5.00;2.80;;;;;;;18.85;68.47;97385.31;108411;1268;23791;-77
2022/08/08 09:16:19;;;;;;;5.40;2.90;;;;;;;19.19;68.88;97385.25;108509;1268;22590;-77
2022/08/08 09:18:51;;;;;;;4.50;2.70;;;;;;;19.63;68.73;97382.25;108438;1268;25900;-77
2022/08/08 09:21:24;;;;;;;6.30;2.50;;;;;;;19.95;67.73;97375.41;108450;1267;22484;-77
2022/08/08 09:23:56;;;;;;;5.50;2.40;;;;;;;20.57;67.34;97375.84;108393;1267;22533;-77
2022/08/08 09:26:36;;;;;;;4.90;2.20;;;;;;;21.57;66.86;97374.04;108506;1267;22555;-77
2022/08/08 09:29:13;;;;;;;5.00;2.30;;;;;;;22.43;64.65;97372.33;108364;1268;23074;-77
2022/08/08 09:31:53;;;;;;;3.70;1.90;;;;;;;22.56;59.65;97369.23;108501;1268;22494;-77
2022/08/08 09:34:30;;;;;;;4.80;2.40;;;;;;;22.34;59.32;97375.81;108437;1268;22600;-77
2022/08/08 09:37:07;;;;;;;6.10;2.40;;;;;;;21.94;58.02;97377.39;108513;1267;22526;-77
2022/08/08 09:39:52;;;;;;;4.80;2.30;;;;;;;22.12;59.81;97379.48;108280;1268;24145;-77
2022/08/08 09:42:31;;;;;;;3.70;2.10;;;;;;;22.45;58.96;97376.95;108445;1268;23780;-77
2022/08/08 09:45:08;;;;;;;3.60;2.20;;;;;;;22.30;57.92;97377.02;108451;1267;24188;-77
2022/08/08 09:47:44;;;;;;;4.90;1.90;;;;;;;22.33;57.49;97372.48;108358;1268;22575;-77
2022/08/08 09:50:17;;;;;;;3.40;2.00;;;;;;;22.52;58.69;97368.29;108480;1268;22676;-77
2022/08/08 09:52:51;;;;;;;3.20;1.70;;;;;;;22.87;56.78;97374.70;108475;1268;25404;-77
2022/08/08 09:55:24;;;;;;;4.30;1.60;;;;;;;22.99;56.95;97375.23;108390;1268;22537;-77
2022/08/08 09:58:05;;;;;;;2.20;1.40;;;;;;;23.21;54.17;97371.70;108320;1268;31850;-77
2022/08/08 10:00:41;;;;;;;3.00;1.70;;;;;;;23.00;55.05;97372.25;108401;1268;23704;-77
2022/08/08 10:03:17;;;;;;;3.60;1.20;;;;;;;23.40;55.26;97371.85;108434;1268;22977;-77
2022/08/08 10:05:48;;;;;;;3.00;1.50;;;;;;;23.50;54.24;97369.06;108399;1267;23335;-77
2022/08/08 10:08:21;;;;;;;2.80;1.30;;;;;;;23.62;54.30;97366.57;108319;1268;42004;-77
2022/08/08 10:11:00;;;;;;;3.30;1.00;;;;;;;23.79;53.38;97370.28;108511;1268;22635;-77
2022/08/08 10:13:31;;;;;;;3.00;1.50;;;;;;;23.60;50.94;97375.70;108499;1267;22538;-77
2022/08/08 10:16:03;;;;;;;1.80;1.20;;;;;;;23.24;51.64;97375.98;108396;1268;22565;-77
2022/08/08 10:18:38;;;;;;;2.20;1.50;;;;;;;23.17;50.19;97378.95;108435;1268;26109;-77
2022/08/08 10:21:12;;;;;;;2.80;1.40;;;;;;;22.89;52.59;97371.67;108456;1268;23711;-77
2022/08/08 10:23:46;;;;;;;3.00;1.20;;;;;;;23.22;53.29;97375.69;108541;1268;25368;-77
2022/08/08 10:26:22;;;;;;;2.70;1.10;;;;;;;23.36;52.80;97377.92;108378;1268;25248;-77
2022/08/08 10:29:01;;;;;;;1.90;1.00;;;;;;;23.29;52.28;97371.16;108294;1268;26644;-77
2022/08/08 10:34:27;;;;;;;3.90;1.50;;;;;;;23.19;52.69;97366.77;108502;1268;23806;-77
2022/08/08 10:36:59;;;;;;;2.90;1.30;;;;;;;23.26;52.62;97365.06;108501;1268;22796;-77
2022/08/08 10:39:43;;;;;;;2.90;1.40;;;;;;;23.23;52.28;97368.98;108426;1267;34387;-77
2022/08/08 10:42:19;;;;;;;3.10;1.60;;;;;;;23.17;52.50;97369.80;108480;1268;23893;-77
2022/08/08 10:44:59;;;;;;;3.40;1.20;;;;;;;23.06;52.50;97372.19;108519;1267;22547;-77
2022/08/08 10:47:30;;;;;;;4.90;1.80;;;;;;;23.04;52.49;97371.50;108514;1268;23383;-78
2022/08/08 10:50:04;;;;;;;3.90;1.40;;;;;;;22.99;52.40;97374.23;108414;1268;31309;-77
2022/08/08 10:52:38;;;;;;;5.50;1.70;;;;;;;23.02;52.41;97373.22;108496;1267;24332;-77
2022/08/08 10:55:13;;;;;;;5.60;1.50;;;;;;;23.11;52.54;97372.83;108415;1268;22662;-78
2022/08/08 10:57:46;;;;;;;2.80;1.20;;;;;;;23.36;52.36;97374.23;108432;1268;34756;-77
2022/08/08 11:00:25;;;;;;;3.60;1.50;;;;;;;23.51;51.30;97372.55;108535;1268;22579;-77
2022/08/08 11:03:01;;;;;;;2.10;1.10;;;;;;;23.53;51.22;97371.46;108436;1268;22570;-77
2022/08/08 11:05:33;;;;;;;4.90;1.70;;;;;;;23.52;50.72;97371.77;108485;1268;22662;-78
2022/08/08 11:08:04;;;;;;;3.50;1.40;;;;;;;23.56;50.66;97371.10;108380;1267;26796;-77
2022/08/08 11:10:38;;;;;;;2.60;1.30;;;;;;;23.42;48.65;97371.77;108494;1268;23336;-78
2022/08/08 11:13:18;;;;;;;4.90;1.70;;;;;;;22.87;48.89;97374.05;108423;1268;25391;-78
2022/08/08 11:15:51;;;;;;;3.30;1.50;;;;;;;22.76;49.22;97373.80;108503;1267;22769;-77
2022/08/08 11:18:24;;;;;;;1.80;1.30;;;;;;;22.62;49.23;97373.16;108332;1267;40009;-77
2022/08/08 11:20:57;;;;;;;5.40;1.60;;;;;;;22.50;50.16;97366.39;108502;1267;23844;-78
2022/08/08 11:23:32;;;;;;;1.40;1.20;;;;;;;22.66;50.79;97364.81;108453;1268;23820;-78
2022/08/08 11:26:07;;;;;;;4.20;1.30;;;;;;;22.48;49.27;97364.48;108499;1268;22676;-78
2022/08/08 11:28:39;;;;;;;2.20;1.10;;;;;;;22.02;48.37;97358.61;108359;1268;30577;-78
2022/08/08 11:31:14;;;;;;;3.20;1.20;;;;;;;21.69;50.19;97365.15;108498;1267;25251;-77
2022/08/08 11:33:52;;;;;;;2.30;1.00;;;;;;;22.02;51.30;97360.00;108505;1268;24265;-77
2022/08/08 11:36:23;;;;;;;4.70;1.00;;;;;;;22.25;49.89;97361.94;108417;1267;24223;-77
2022/08/08 11:38:56;;;;;;;1.90;0.90;;;;;;;22.30;50.56;97358.93;108389;1268;32425;-77
2022/08/08 11:41:29;;;;;;;2.90;1.00;;;;;;;22.46;50.48;97360.41;108528;1268;23703;-77
2022/08/08 11:44:00;;;;;;;2.40;0.80;;;;;;;22.63;50.19;97357.85;108400;1268;22674;-77
2022/08/08 11:46:34;;;;;;;2.90;1.10;;;;;;;22.76;49.44;97356.77;108491;1268;22568;-77
2022/08/08 11:49:08;;;;;;;2.50;1.10;;;;;;;22.50;48.72;97355.89;108439;1268;26620;-77
2022/08/08 11:51:40;;;;;;;1.10;0.70;;;;;;;22.40;49.30;97352.77;108479;1268;22545;-77
2022/08/08 11:54:11;;;;;;;4.00;1.10;;;;;;;22.32;47.81;97351.97;108378;1268;23894;-77
2022/08/08 11:56:43;;;;;;;3.70;1.00;;;;;;;22.08;48.26;97355.10;108425;1268;25367;-78
2022/08/08 11:59:15;;;;;;;2.70;1.30;;;;;;;21.99;48.51;97351.70;108415;1268;32793;-78
2022/08/08 12:01:46;;;;;;;1.80;0.80;;;;;;;22.10;49.36;97349.60;108503;1268;22548;-77
2022/08/08 12:04:19;;;;;;;2.80;1.10;;;;;;;22.31;48.75;97346.80;108486;1268;22631;-78
2022/08/08 12:06:50;;;;;;;1.70;0.90;;;;;;;22.39;48.57;97347.91;108486;1268;24566;-78
2022/08/08 12:09:30;;;;;;;2.60;1.00;;;;;;;22.43;48.22;97343.23;108428;1268;37682;-77
2022/08/08 12:12:01;;;;;;;2.90;0.90;;;;;;;22.42;47.38;97341.74;108479;1268;22701;-77
2022/08/08 12:14:33;;;;;;;2.10;1.00;;;;;;;22.34;47.51;97339.23;108511;1268;22524;-78
2022/08/08 12:17:04;;;;;;;2.10;1.00;;;;;;;22.32;47.00;97338.24;108402;1268;22554;-78
2022/08/08 12:19:38;;;;;;;3.30;1.00;;;;;;;22.22;47.48;97336.55;108271;1268;32942;-77
2022/08/08 12:22:11;;;;;;;6.00;1.20;;;;;;;22.37;48.63;97340.73;108441;1267;22918;-78
2022/08/08 12:24:51;;;;;;;3.40;1.30;;;;;;;22.29;45.79;97337.16;108497;1268;25369;-78
2022/08/08 12:27:22;;;;;;;3.70;1.10;;;;;;;22.23;48.72;97339.73;108501;1268;22770;-78
2022/08/08 12:30:00;;;;;;;1.80;1.00;;;;;;;22.51;48.74;97339.70;108441;1267;36082;-78